sensor_id;sensor_type;location;lat;lon;timestamp;P1;durP1;ratioP1;P2;durP2;ratioP2
82805;SDS011;72558;51.000;-3.112;2023-11-18T00:00:33;4.1;;;0.7;;
82805;SDS011;72558;51.000;-3.112;2023-11-18T00:03:34;3.5;;;0.4;;
82805;SDS011;72558;51.000;-3.112;2023-11-18T00:06:34;1.9;;;0.2;;
82805;SDS011;72558;51.000;-3.112;2023-11-18T00:09:33;1.7;;;0.3;;
82805;SDS011;72558;51.000;-3.112;2023-11-18T00:12:34;3.1;;;0.8;;
82805;SDS011;72558;51.000;-3.112;2023-11-18T00:15:34;2.1;;;0.4;;
82805;SDS011;72558;51.000;-3.112;2023-11-18T00:18:34;2.5;;;0.3;;
82805;SDS011;72558;51.000;-3.112;2023-11-18T00:21:34;3.5;;;0.3;;
82805;SDS011;72558;51.000;-3.112;2023-11-18T00:24:34;3.9;;;0.3;;
82805;SDS011;72558;51.000;-3.112;2023-11-18T00:27:34;4.6;;;0.5;;
82805;SDS011;72558;51.000;-3.112;2023-11-18T00:30:34;3.8;;;0.7;;
82805;SDS011;72558;51.000;-3.112;2023-11-18T00:33:34;2.5;;;0.3;;
82805;SDS011;72558;51.000;-3.112;2023-11-18T00:36:34;2.4;;;0.6;;
82805;SDS011;72558;51.000;-3.112;2023-11-18T00:39:33;3.0;;;0.4;;
82805;SDS011;72558;51.000;-3.112;2023-11-18T00:42:34;3.0;;;0.2;;
82805;SDS011;72558;51.000;-3.112;2023-11-18T00:45:34;1.9;;;0.3;;
82805;SDS011;72558;51.000;-3.112;2023-11-18T00:48:33;1.5;;;0.5;;
82805;SDS011;72558;51.000;-3.112;2023-11-18T00:51:34;2.2;;;0.4;;
82805;SDS011;72558;51.000;-3.112;2023-11-18T00:54:33;3.6;;;0.3;;
82805;SDS011;72558;51.000;-3.112;2023-11-18T00:57:33;1.7;;;0.3;;
82805;SDS011;72558;51.000;-3.112;2023-11-18T01:00:34;0.8;;;0.2;;
82805;SDS011;72558;51.000;-3.112;2023-11-18T01:03:34;2.3;;;0.2;;
82805;SDS011;72558;51.000;-3.112;2023-11-18T01:06:34;1.8;;;0.2;;
82805;SDS011;72558;51.000;-3.112;2023-11-18T01:09:34;1.6;;;0.4;;
82805;SDS011;72558;51.000;-3.112;2023-11-18T01:12:34;1.3;;;0.2;;
82805;SDS011;72558;51.000;-3.112;2023-11-18T01:15:34;1.2;;;0.3;;
82805;SDS011;72558;51.000;-3.112;2023-11-18T01:18:33;2.2;;;0.4;;
82805;SDS011;72558;51.000;-3.112;2023-11-18T01:21:34;1.9;;;0.3;;
82805;SDS011;72558;51.000;-3.112;2023-11-18T01:24:34;1.7;;;0.2;;
82805;SDS011;72558;51.000;-3.112;2023-11-18T01:27:34;1.8;;;0.2;;
82805;SDS011;72558;51.000;-3.112;2023-11-18T01:30:34;1.3;;;0.2;;
82805;SDS011;72558;51.000;-3.112;2023-11-18T01:33:35;1.2;;;0.2;;
82805;SDS011;72558;51.000;-3.112;2023-11-18T01:36:33;1.0;;;0.1;;
82805;SDS011;72558;51.000;-3.112;2023-11-18T01:39:34;1.8;;;0.3;;
82805;SDS011;72558;51.000;-3.112;2023-11-18T01:42:33;1.9;;;0.3;;
82805;SDS011;72558;51.000;-3.112;2023-11-18T01:45:34;1.0;;;0.2;;
82805;SDS011;72558;51.000;-3.112;2023-11-18T01:48:33;2.6;;;0.2;;
82805;SDS011;72558;51.000;-3.112;2023-11-18T01:51:34;1.1;;;0.1;;
82805;SDS011;72558;51.000;-3.112;2023-11-18T01:54:34;1.1;;;0.2;;
82805;SDS011;72558;51.000;-3.112;2023-11-18T01:57:34;1.1;;;0.3;;
82805;SDS011;72558;51.000;-3.112;2023-11-18T02:00:33;1.7;;;0.2;;
82805;SDS011;72558;51.000;-3.112;2023-11-18T02:03:34;2.0;;;0.3;;
82805;SDS011;72558;51.000;-3.112;2023-11-18T02:06:34;2.0;;;0.2;;
82805;SDS011;72558;51.000;-3.112;2023-11-18T02:09:34;2.3;;;0.3;;
82805;SDS011;72558;51.000;-3.112;2023-11-18T02:12:34;0.8;;;0.1;;
82805;SDS011;72558;51.000;-3.112;2023-11-18T02:15:34;0.6;;;0.1;;
82805;SDS011;72558;51.000;-3.112;2023-11-18T02:18:33;1.0;;;0.2;;
82805;SDS011;72558;51.000;-3.112;2023-11-18T02:21:34;1.0;;;0.2;;
82805;SDS011;72558;51.000;-3.112;2023-11-18T02:24:34;0.6;;;0.1;;
82805;SDS011;72558;51.000;-3.112;2023-11-18T02:27:33;0.3;;;0.1;;
82805;SDS011;72558;51.000;-3.112;2023-11-18T02:30:34;0.7;;;0.2;;
82805;SDS011;72558;51.000;-3.112;2023-11-18T02:33:34;0.7;;;0.2;;
82805;SDS011;72558;51.000;-3.112;2023-11-18T02:36:34;0.3;;;0.1;;
82805;SDS011;72558;51.000;-3.112;2023-11-18T02:39:34;1.1;;;0.1;;
82805;SDS011;72558;51.000;-3.112;2023-11-18T02:42:34;0.2;;;0.1;;
82805;SDS011;72558;51.000;-3.112;2023-11-18T02:45:34;1.2;;;0.1;;
82805;SDS011;72558;51.000;-3.112;2023-11-18T02:48:33;0.1;;;0.1;;
82805;SDS011;72558;51.000;-3.112;2023-11-18T02:51:33;0.7;;;0.1;;
82805;SDS011;72558;51.000;-3.112;2023-11-18T02:54:34;0.0;;;0.0;;
82805;SDS011;72558;51.000;-3.112;2023-11-18T02:57:33;0.8;;;0.1;;
82805;SDS011;72558;51.000;-3.112;2023-11-18T03:00:34;0.4;;;0.2;;
82805;SDS011;72558;51.000;-3.112;2023-11-18T03:03:33;0.8;;;0.3;;
82805;SDS011;72558;51.000;-3.112;2023-11-18T03:06:34;1.7;;;0.2;;
82805;SDS011;72558;51.000;-3.112;2023-11-18T03:09:34;0.9;;;0.2;;
82805;SDS011;72558;51.000;-3.112;2023-11-18T03:12:34;1.3;;;0.3;;
82805;SDS011;72558;51.000;-3.112;2023-11-18T03:15:34;2.1;;;0.2;;
82805;SDS011;72558;51.000;-3.112;2023-11-18T03:18:33;2.5;;;0.3;;
82805;SDS011;72558;51.000;-3.112;2023-11-18T03:21:34;2.1;;;0.2;;
82805;SDS011;72558;51.000;-3.112;2023-11-18T03:24:33;3.3;;;0.5;;
82805;SDS011;72558;51.000;-3.112;2023-11-18T03:27:34;1.8;;;0.5;;
82805;SDS011;72558;51.000;-3.112;2023-11-18T03:30:34;2.7;;;0.3;;
82805;SDS011;72558;51.000;-3.112;2023-11-18T03:33:34;2.4;;;0.5;;
82805;SDS011;72558;51.000;-3.112;2023-11-18T03:36:34;4.8;;;0.4;;
82805;SDS011;72558;51.000;-3.112;2023-11-18T03:39:34;4.6;;;0.8;;
82805;SDS011;72558;51.000;-3.112;2023-11-18T03:42:34;4.5;;;0.7;;
82805;SDS011;72558;51.000;-3.112;2023-11-18T03:45:34;3.5;;;0.7;;
82805;SDS011;72558;51.000;-3.112;2023-11-18T03:48:34;3.1;;;0.5;;
82805;SDS011;72558;51.000;-3.112;2023-11-18T03:51:34;5.4;;;0.7;;
82805;SDS011;72558;51.000;-3.112;2023-11-18T03:54:34;4.6;;;0.7;;
82805;SDS011;72558;51.000;-3.112;2023-11-18T03:57:34;5.0;;;0.9;;
82805;SDS011;72558;51.000;-3.112;2023-11-18T04:00:34;6.3;;;1.0;;
82805;SDS011;72558;51.000;-3.112;2023-11-18T04:03:34;6.2;;;0.9;;
82805;SDS011;72558;51.000;-3.112;2023-11-18T04:06:33;5.0;;;1.0;;
82805;SDS011;72558;51.000;-3.112;2023-11-18T04:09:34;4.9;;;1.1;;
82805;SDS011;72558;51.000;-3.112;2023-11-18T04:12:33;4.1;;;0.6;;
82805;SDS011;72558;51.000;-3.112;2023-11-18T04:15:34;4.0;;;0.9;;
82805;SDS011;72558;51.000;-3.112;2023-11-18T04:18:33;4.8;;;1.0;;
82805;SDS011;72558;51.000;-3.112;2023-11-18T04:21:34;7.4;;;0.9;;
82805;SDS011;72558;51.000;-3.112;2023-11-18T04:24:33;5.7;;;0.8;;
82805;SDS011;72558;51.000;-3.112;2023-11-18T04:27:34;4.6;;;0.9;;
82805;SDS011;72558;51.000;-3.112;2023-11-18T04:30:33;5.8;;;1.2;;
82805;SDS011;72558;51.000;-3.112;2023-11-18T04:33:34;4.0;;;0.8;;
82805;SDS011;72558;51.000;-3.112;2023-11-18T04:36:33;4.0;;;0.7;;
82805;SDS011;72558;51.000;-3.112;2023-11-18T04:39:34;5.7;;;0.8;;
82805;SDS011;72558;51.000;-3.112;2023-11-18T04:42:34;5.7;;;1.3;;
82805;SDS011;72558;51.000;-3.112;2023-11-18T04:45:34;6.0;;;0.9;;
82805;SDS011;72558;51.000;-3.112;2023-11-18T04:48:33;6.2;;;0.9;;
82805;SDS011;72558;51.000;-3.112;2023-11-18T04:51:34;4.5;;;1.0;;
82805;SDS011;72558;51.000;-3.112;2023-11-18T04:54:33;6.0;;;1.0;;
82805;SDS011;72558;51.000;-3.112;2023-11-18T04:57:34;5.0;;;1.2;;
82805;SDS011;72558;51.000;-3.112;2023-11-18T05:00:34;7.1;;;1.0;;
82805;SDS011;72558;51.000;-3.112;2023-11-18T05:03:34;6.8;;;1.0;;
82805;SDS011;72558;51.000;-3.112;2023-11-18T05:06:33;5.3;;;1.2;;
82805;SDS011;72558;51.000;-3.112;2023-11-18T05:09:34;4.9;;;1.0;;
82805;SDS011;72558;51.000;-3.112;2023-11-18T05:12:33;6.0;;;0.8;;
82805;SDS011;72558;51.000;-3.112;2023-11-18T05:15:34;5.1;;;0.9;;
82805;SDS011;72558;51.000;-3.112;2023-11-18T05:18:33;5.9;;;0.9;;
82805;SDS011;72558;51.000;-3.112;2023-11-18T05:21:34;6.0;;;1.0;;
82805;SDS011;72558;51.000;-3.112;2023-11-18T05:24:33;5.6;;;0.9;;
82805;SDS011;72558;51.000;-3.112;2023-11-18T05:27:34;4.0;;;0.9;;
82805;SDS011;72558;51.000;-3.112;2023-11-18T05:30:33;5.0;;;0.7;;
82805;SDS011;72558;51.000;-3.112;2023-11-18T05:33:34;4.9;;;0.7;;
82805;SDS011;72558;51.000;-3.112;2023-11-18T05:36:34;5.8;;;1.0;;
82805;SDS011;72558;51.000;-3.112;2023-11-18T05:39:34;3.8;;;1.1;;
82805;SDS011;72558;51.000;-3.112;2023-11-18T05:42:33;3.1;;;0.7;;
82805;SDS011;72558;51.000;-3.112;2023-11-18T05:45:34;3.3;;;0.4;;
82805;SDS011;72558;51.000;-3.112;2023-11-18T05:48:34;2.7;;;0.4;;
82805;SDS011;72558;51.000;-3.112;2023-11-18T05:51:34;4.2;;;0.6;;
82805;SDS011;72558;51.000;-3.112;2023-11-18T05:54:34;2.1;;;0.6;;
82805;SDS011;72558;51.000;-3.112;2023-11-18T05:57:34;5.7;;;0.5;;
82805;SDS011;72558;51.000;-3.112;2023-11-18T06:00:34;2.6;;;0.5;;
82805;SDS011;72558;51.000;-3.112;2023-11-18T06:03:33;2.6;;;0.6;;
82805;SDS011;72558;51.000;-3.112;2023-11-18T06:06:34;3.4;;;0.4;;
82805;SDS011;72558;51.000;-3.112;2023-11-18T06:09:33;1.3;;;0.3;;
82805;SDS011;72558;51.000;-3.112;2023-11-18T06:12:34;4.1;;;0.4;;
82805;SDS011;72558;51.000;-3.112;2023-11-18T06:15:34;1.2;;;0.3;;
82805;SDS011;72558;51.000;-3.112;2023-11-18T06:18:34;2.5;;;0.3;;
82805;SDS011;72558;51.000;-3.112;2023-11-18T06:21:34;2.1;;;0.3;;
82805;SDS011;72558;51.000;-3.112;2023-11-18T06:24:34;2.5;;;0.6;;
82805;SDS011;72558;51.000;-3.112;2023-11-18T06:27:34;1.3;;;0.8;;
82805;SDS011;72558;51.000;-3.112;2023-11-18T06:30:34;2.6;;;0.6;;
82805;SDS011;72558;51.000;-3.112;2023-11-18T06:33:34;2.3;;;0.5;;
82805;SDS011;72558;51.000;-3.112;2023-11-18T06:36:34;2.9;;;0.5;;
82805;SDS011;72558;51.000;-3.112;2023-11-18T06:39:34;1.6;;;0.5;;
82805;SDS011;72558;51.000;-3.112;2023-11-18T06:42:34;2.2;;;0.4;;
82805;SDS011;72558;51.000;-3.112;2023-11-18T06:45:34;2.4;;;0.7;;
82805;SDS011;72558;51.000;-3.112;2023-11-18T06:48:34;1.5;;;0.3;;
82805;SDS011;72558;51.000;-3.112;2023-11-18T06:51:34;3.0;;;0.3;;
82805;SDS011;72558;51.000;-3.112;2023-11-18T06:54:34;3.2;;;0.6;;
82805;SDS011;72558;51.000;-3.112;2023-11-18T06:57:34;1.3;;;0.2;;
82805;SDS011;72558;51.000;-3.112;2023-11-18T07:00:34;2.5;;;0.3;;
82805;SDS011;72558;51.000;-3.112;2023-11-18T07:03:34;1.5;;;0.2;;
82805;SDS011;72558;51.000;-3.112;2023-11-18T07:06:34;1.3;;;0.7;;
82805;SDS011;72558;51.000;-3.112;2023-11-18T07:09:33;2.9;;;0.3;;
82805;SDS011;72558;51.000;-3.112;2023-11-18T07:12:34;1.9;;;0.5;;
82805;SDS011;72558;51.000;-3.112;2023-11-18T07:15:33;2.0;;;0.3;;
82805;SDS011;72558;51.000;-3.112;2023-11-18T07:18:34;2.6;;;0.2;;
82805;SDS011;72558;51.000;-3.112;2023-11-18T07:21:33;1.2;;;0.3;;
82805;SDS011;72558;51.000;-3.112;2023-11-18T07:24:34;0.8;;;0.2;;
82805;SDS011;72558;51.000;-3.112;2023-11-18T07:27:34;0.6;;;0.2;;
82805;SDS011;72558;51.000;-3.112;2023-11-18T07:30:33;0.8;;;0.2;;
82805;SDS011;72558;51.000;-3.112;2023-11-18T07:33:34;1.4;;;0.2;;
82805;SDS011;72558;51.000;-3.112;2023-11-18T07:36:33;2.4;;;0.2;;
82805;SDS011;72558;51.000;-3.112;2023-11-18T07:39:34;1.5;;;0.2;;
82805;SDS011;72558;51.000;-3.112;2023-11-18T07:42:33;1.0;;;0.3;;
82805;SDS011;72558;51.000;-3.112;2023-11-18T07:45:34;1.9;;;0.2;;
82805;SDS011;72558;51.000;-3.112;2023-11-18T07:48:34;1.0;;;0.2;;
82805;SDS011;72558;51.000;-3.112;2023-11-18T07:51:33;2.3;;;0.3;;
82805;SDS011;72558;51.000;-3.112;2023-11-18T07:54:34;1.7;;;0.2;;
82805;SDS011;72558;51.000;-3.112;2023-11-18T07:57:33;1.1;;;0.2;;
82805;SDS011;72558;51.000;-3.112;2023-11-18T08:00:34;1.4;;;0.3;;
82805;SDS011;72558;51.000;-3.112;2023-11-18T08:03:34;1.2;;;0.2;;
82805;SDS011;72558;51.000;-3.112;2023-11-18T08:06:34;1.9;;;0.1;;
82805;SDS011;72558;51.000;-3.112;2023-11-18T08:09:33;1.2;;;0.5;;
82805;SDS011;72558;51.000;-3.112;2023-11-18T08:12:34;2.4;;;0.6;;
82805;SDS011;72558;51.000;-3.112;2023-11-18T08:15:34;0.8;;;0.1;;
82805;SDS011;72558;51.000;-3.112;2023-11-18T08:18:34;1.4;;;0.5;;
82805;SDS011;72558;51.000;-3.112;2023-11-18T08:21:33;1.3;;;0.2;;
82805;SDS011;72558;51.000;-3.112;2023-11-18T08:24:34;1.8;;;0.2;;
82805;SDS011;72558;51.000;-3.112;2023-11-18T08:27:34;1.8;;;0.2;;
82805;SDS011;72558;51.000;-3.112;2023-11-18T08:30:33;1.0;;;0.2;;
82805;SDS011;72558;51.000;-3.112;2023-11-18T08:33:33;1.3;;;0.4;;
82805;SDS011;72558;51.000;-3.112;2023-11-18T08:36:34;1.0;;;0.2;;
82805;SDS011;72558;51.000;-3.112;2023-11-18T08:39:33;1.0;;;0.2;;
82805;SDS011;72558;51.000;-3.112;2023-11-18T08:42:34;0.5;;;0.2;;
82805;SDS011;72558;51.000;-3.112;2023-11-18T08:45:33;1.1;;;0.2;;
82805;SDS011;72558;51.000;-3.112;2023-11-18T08:48:34;0.5;;;0.2;;
82805;SDS011;72558;51.000;-3.112;2023-11-18T08:51:34;1.1;;;0.8;;
82805;SDS011;72558;51.000;-3.112;2023-11-18T08:54:34;0.7;;;0.1;;
82805;SDS011;72558;51.000;-3.112;2023-11-18T08:57:34;0.9;;;0.1;;
82805;SDS011;72558;51.000;-3.112;2023-11-18T09:00:34;1.1;;;0.3;;
82805;SDS011;72558;51.000;-3.112;2023-11-18T09:03:34;0.9;;;0.3;;
82805;SDS011;72558;51.000;-3.112;2023-11-18T09:06:34;0.6;;;0.1;;
82805;SDS011;72558;51.000;-3.112;2023-11-18T09:09:33;1.3;;;0.2;;
82805;SDS011;72558;51.000;-3.112;2023-11-18T09:12:33;0.9;;;0.2;;
82805;SDS011;72558;51.000;-3.112;2023-11-18T09:15:34;1.5;;;0.4;;
82805;SDS011;72558;51.000;-3.112;2023-11-18T09:18:33;0.9;;;0.1;;
82805;SDS011;72558;51.000;-3.112;2023-11-18T09:21:34;1.0;;;0.3;;
82805;SDS011;72558;51.000;-3.112;2023-11-18T09:24:34;2.5;;;0.4;;
82805;SDS011;72558;51.000;-3.112;2023-11-18T09:27:34;1.1;;;0.2;;
82805;SDS011;72558;51.000;-3.112;2023-11-18T09:30:33;0.8;;;0.2;;
82805;SDS011;72558;51.000;-3.112;2023-11-18T09:33:34;0.6;;;0.2;;
82805;SDS011;72558;51.000;-3.112;2023-11-18T09:36:34;0.4;;;0.2;;
82805;SDS011;72558;51.000;-3.112;2023-11-18T09:39:34;1.3;;;0.1;;
82805;SDS011;72558;51.000;-3.112;2023-11-18T09:42:33;2.0;;;0.3;;
82805;SDS011;72558;51.000;-3.112;2023-11-18T09:45:34;2.0;;;0.3;;
82805;SDS011;72558;51.000;-3.112;2023-11-18T09:48:34;3.5;;;0.3;;
82805;SDS011;72558;51.000;-3.112;2023-11-18T09:51:33;2.5;;;0.4;;
82805;SDS011;72558;51.000;-3.112;2023-11-18T09:54:34;2.8;;;0.2;;
82805;SDS011;72558;51.000;-3.112;2023-11-18T09:57:34;1.4;;;0.4;;
82805;SDS011;72558;51.000;-3.112;2023-11-18T10:00:34;3.3;;;0.3;;
82805;SDS011;72558;51.000;-3.112;2023-11-18T10:03:34;2.2;;;0.3;;
82805;SDS011;72558;51.000;-3.112;2023-11-18T10:06:34;2.0;;;0.4;;
82805;SDS011;72558;51.000;-3.112;2023-11-18T10:09:34;2.8;;;0.5;;
82805;SDS011;72558;51.000;-3.112;2023-11-18T10:12:34;1.5;;;0.3;;
82805;SDS011;72558;51.000;-3.112;2023-11-18T10:15:34;2.3;;;0.2;;
82805;SDS011;72558;51.000;-3.112;2023-11-18T10:18:33;3.5;;;0.4;;
82805;SDS011;72558;51.000;-3.112;2023-11-18T10:21:34;2.7;;;0.4;;
82805;SDS011;72558;51.000;-3.112;2023-11-18T10:24:34;2.5;;;0.5;;
82805;SDS011;72558;51.000;-3.112;2023-11-18T10:27:34;6.0;;;0.8;;
82805;SDS011;72558;51.000;-3.112;2023-11-18T10:30:34;9.5;;;0.9;;
82805;SDS011;72558;51.000;-3.112;2023-11-18T10:33:34;10.8;;;1.4;;
82805;SDS011;72558;51.000;-3.112;2023-11-18T10:36:34;10.8;;;1.5;;
82805;SDS011;72558;51.000;-3.112;2023-11-18T10:39:34;11.1;;;1.6;;
82805;SDS011;72558;51.000;-3.112;2023-11-18T10:42:34;11.6;;;1.8;;
82805;SDS011;72558;51.000;-3.112;2023-11-18T10:45:34;13.1;;;2.2;;
82805;SDS011;72558;51.000;-3.112;2023-11-18T10:48:34;13.1;;;1.8;;
82805;SDS011;72558;51.000;-3.112;2023-11-18T10:51:34;12.4;;;1.9;;
82805;SDS011;72558;51.000;-3.112;2023-11-18T10:54:33;12.8;;;1.7;;
82805;SDS011;72558;51.000;-3.112;2023-11-18T10:57:34;12.5;;;1.8;;
82805;SDS011;72558;51.000;-3.112;2023-11-18T11:00:34;12.9;;;2.1;;
82805;SDS011;72558;51.000;-3.112;2023-11-18T11:03:33;10.8;;;1.5;;
82805;SDS011;72558;51.000;-3.112;2023-11-18T11:06:34;12.3;;;2.1;;
82805;SDS011;72558;51.000;-3.112;2023-11-18T11:09:34;13.9;;;2.1;;
82805;SDS011;72558;51.000;-3.112;2023-11-18T11:12:34;15.1;;;2.0;;
82805;SDS011;72558;51.000;-3.112;2023-11-18T11:15:34;12.0;;;2.2;;
82805;SDS011;72558;51.000;-3.112;2023-11-18T11:18:34;13.1;;;2.3;;
82805;SDS011;72558;51.000;-3.112;2023-11-18T11:21:34;14.5;;;2.2;;
82805;SDS011;72558;51.000;-3.112;2023-11-18T11:24:34;15.1;;;2.3;;
82805;SDS011;72558;51.000;-3.112;2023-11-18T11:27:33;14.0;;;2.3;;
82805;SDS011;72558;51.000;-3.112;2023-11-18T11:30:34;13.2;;;2.2;;
82805;SDS011;72558;51.000;-3.112;2023-11-18T11:33:33;17.0;;;2.4;;
82805;SDS011;72558;51.000;-3.112;2023-11-18T11:36:34;14.1;;;2.1;;
82805;SDS011;72558;51.000;-3.112;2023-11-18T11:39:34;12.5;;;2.2;;
82805;SDS011;72558;51.000;-3.112;2023-11-18T11:42:33;13.6;;;1.9;;
82805;SDS011;72558;51.000;-3.112;2023-11-18T11:45:34;14.0;;;2.8;;
82805;SDS011;72558;51.000;-3.112;2023-11-18T11:48:33;16.3;;;2.8;;
82805;SDS011;72558;51.000;-3.112;2023-11-18T11:51:34;19.4;;;3.2;;
82805;SDS011;72558;51.000;-3.112;2023-11-18T11:54:33;14.0;;;2.3;;
82805;SDS011;72558;51.000;-3.112;2023-11-18T11:57:34;16.6;;;3.0;;
82805;SDS011;72558;51.000;-3.112;2023-11-18T12:00:33;14.7;;;2.7;;
82805;SDS011;72558;51.000;-3.112;2023-11-18T12:03:34;16.4;;;2.7;;
82805;SDS011;72558;51.000;-3.112;2023-11-18T12:06:33;14.7;;;2.5;;
82805;SDS011;72558;51.000;-3.112;2023-11-18T12:09:34;15.4;;;2.4;;
82805;SDS011;72558;51.000;-3.112;2023-11-18T12:12:34;11.4;;;2.3;;
82805;SDS011;72558;51.000;-3.112;2023-11-18T12:15:33;12.8;;;2.2;;
82805;SDS011;72558;51.000;-3.112;2023-11-18T12:18:34;13.4;;;2.3;;
82805;SDS011;72558;51.000;-3.112;2023-11-18T12:21:33;13.7;;;2.3;;
82805;SDS011;72558;51.000;-3.112;2023-11-18T12:24:33;13.8;;;2.6;;
82805;SDS011;72558;51.000;-3.112;2023-11-18T12:27:34;10.1;;;1.9;;
82805;SDS011;72558;51.000;-3.112;2023-11-18T12:30:33;13.0;;;2.5;;
82805;SDS011;72558;51.000;-3.112;2023-11-18T12:33:34;12.2;;;2.6;;
82805;SDS011;72558;51.000;-3.112;2023-11-18T12:36:33;16.6;;;2.5;;
82805;SDS011;72558;51.000;-3.112;2023-11-18T12:39:34;14.1;;;2.8;;
82805;SDS011;72558;51.000;-3.112;2023-11-18T12:42:34;15.1;;;2.5;;
82805;SDS011;72558;51.000;-3.112;2023-11-18T12:45:34;14.5;;;2.9;;
82805;SDS011;72558;51.000;-3.112;2023-11-18T12:48:34;15.6;;;2.4;;
82805;SDS011;72558;51.000;-3.112;2023-11-18T12:51:33;14.2;;;2.3;;
82805;SDS011;72558;51.000;-3.112;2023-11-18T12:54:34;15.3;;;2.3;;
82805;SDS011;72558;51.000;-3.112;2023-11-18T12:57:34;16.2;;;3.1;;
82805;SDS011;72558;51.000;-3.112;2023-11-18T13:00:34;14.3;;;2.7;;
82805;SDS011;72558;51.000;-3.112;2023-11-18T13:03:34;15.2;;;2.5;;
82805;SDS011;72558;51.000;-3.112;2023-11-18T13:06:33;14.7;;;2.4;;
82805;SDS011;72558;51.000;-3.112;2023-11-18T13:09:34;12.4;;;2.2;;
82805;SDS011;72558;51.000;-3.112;2023-11-18T13:12:34;18.6;;;2.7;;
82805;SDS011;72558;51.000;-3.112;2023-11-18T13:15:34;17.6;;;2.6;;
82805;SDS011;72558;51.000;-3.112;2023-11-18T13:18:34;14.9;;;2.5;;
82805;SDS011;72558;51.000;-3.112;2023-11-18T13:21:34;16.9;;;2.9;;
82805;SDS011;72558;51.000;-3.112;2023-11-18T13:24:34;13.9;;;2.7;;
82805;SDS011;72558;51.000;-3.112;2023-11-18T13:27:34;17.2;;;2.7;;
82805;SDS011;72558;51.000;-3.112;2023-11-18T13:30:34;16.3;;;2.8;;
82805;SDS011;72558;51.000;-3.112;2023-11-18T13:33:33;16.8;;;2.6;;
82805;SDS011;72558;51.000;-3.112;2023-11-18T13:36:34;16.5;;;3.1;;
82805;SDS011;72558;51.000;-3.112;2023-11-18T13:39:34;20.7;;;3.3;;
82805;SDS011;72558;51.000;-3.112;2023-11-18T13:42:34;17.9;;;3.3;;
82805;SDS011;72558;51.000;-3.112;2023-11-18T13:45:34;17.0;;;2.8;;
82805;SDS011;72558;51.000;-3.112;2023-11-18T13:48:34;15.7;;;2.6;;
82805;SDS011;72558;51.000;-3.112;2023-11-18T13:51:34;19.2;;;4.4;;
82805;SDS011;72558;51.000;-3.112;2023-11-18T13:54:34;16.9;;;3.3;;
82805;SDS011;72558;51.000;-3.112;2023-11-18T13:57:34;14.8;;;3.1;;
82805;SDS011;72558;51.000;-3.112;2023-11-18T14:00:33;16.4;;;2.7;;
82805;SDS011;72558;51.000;-3.112;2023-11-18T14:03:34;18.4;;;2.8;;
82805;SDS011;72558;51.000;-3.112;2023-11-18T14:06:33;16.5;;;3.1;;
82805;SDS011;72558;51.000;-3.112;2023-11-18T14:09:34;17.7;;;3.2;;
82805;SDS011;72558;51.000;-3.112;2023-11-18T14:12:33;18.6;;;3.1;;
82805;SDS011;72558;51.000;-3.112;2023-11-18T14:15:34;20.7;;;3.1;;
82805;SDS011;72558;51.000;-3.112;2023-11-18T14:18:33;17.2;;;3.3;;
82805;SDS011;72558;51.000;-3.112;2023-11-18T14:21:34;16.7;;;3.3;;
82805;SDS011;72558;51.000;-3.112;2023-11-18T14:24:33;19.8;;;3.5;;
82805;SDS011;72558;51.000;-3.112;2023-11-18T14:27:34;24.8;;;3.9;;
82805;SDS011;72558;51.000;-3.112;2023-11-18T14:30:33;22.9;;;3.7;;
82805;SDS011;72558;51.000;-3.112;2023-11-18T14:33:34;19.2;;;3.5;;
82805;SDS011;72558;51.000;-3.112;2023-11-18T14:36:33;22.9;;;3.8;;
82805;SDS011;72558;51.000;-3.112;2023-11-18T14:39:34;20.1;;;3.1;;
82805;SDS011;72558;51.000;-3.112;2023-11-18T14:42:34;24.9;;;4.3;;
82805;SDS011;72558;51.000;-3.112;2023-11-18T14:45:34;24.0;;;3.7;;
82805;SDS011;72558;51.000;-3.112;2023-11-18T14:48:34;21.3;;;3.5;;
82805;SDS011;72558;51.000;-3.112;2023-11-18T14:51:34;25.4;;;3.8;;
82805;SDS011;72558;51.000;-3.112;2023-11-18T14:54:34;23.7;;;3.9;;
82805;SDS011;72558;51.000;-3.112;2023-11-18T14:57:33;20.4;;;3.8;;
82805;SDS011;72558;51.000;-3.112;2023-11-18T15:00:34;24.7;;;4.3;;
82805;SDS011;72558;51.000;-3.112;2023-11-18T15:03:34;25.2;;;3.8;;
82805;SDS011;72558;51.000;-3.112;2023-11-18T15:06:34;25.3;;;4.1;;
82805;SDS011;72558;51.000;-3.112;2023-11-18T15:09:34;24.0;;;4.1;;
82805;SDS011;72558;51.000;-3.112;2023-11-18T15:12:34;24.7;;;3.6;;
82805;SDS011;72558;51.000;-3.112;2023-11-18T15:15:34;25.7;;;3.9;;
82805;SDS011;72558;51.000;-3.112;2023-11-18T15:18:34;22.3;;;3.7;;
82805;SDS011;72558;51.000;-3.112;2023-11-18T15:21:34;23.4;;;3.5;;
82805;SDS011;72558;51.000;-3.112;2023-11-18T15:24:34;25.6;;;4.0;;
82805;SDS011;72558;51.000;-3.112;2023-11-18T15:27:34;27.7;;;4.7;;
82805;SDS011;72558;51.000;-3.112;2023-11-18T15:30:34;26.2;;;3.6;;
82805;SDS011;72558;51.000;-3.112;2023-11-18T15:33:34;28.4;;;4.7;;
82805;SDS011;72558;51.000;-3.112;2023-11-18T15:36:33;27.5;;;4.0;;
82805;SDS011;72558;51.000;-3.112;2023-11-18T15:39:34;25.3;;;4.1;;
82805;SDS011;72558;51.000;-3.112;2023-11-18T15:42:34;22.7;;;3.9;;
82805;SDS011;72558;51.000;-3.112;2023-11-18T15:45:34;30.5;;;5.0;;
82805;SDS011;72558;51.000;-3.112;2023-11-18T15:48:33;26.7;;;4.0;;
82805;SDS011;72558;51.000;-3.112;2023-11-18T15:51:34;26.9;;;4.0;;
82805;SDS011;72558;51.000;-3.112;2023-11-18T15:54:33;28.2;;;4.4;;
82805;SDS011;72558;51.000;-3.112;2023-11-18T15:57:34;29.3;;;4.9;;
82805;SDS011;72558;51.000;-3.112;2023-11-18T16:00:33;24.5;;;4.2;;
82805;SDS011;72558;51.000;-3.112;2023-11-18T16:03:34;30.0;;;4.5;;
82805;SDS011;72558;51.000;-3.112;2023-11-18T16:06:34;25.6;;;4.0;;
82805;SDS011;72558;51.000;-3.112;2023-11-18T16:09:34;28.5;;;4.4;;
82805;SDS011;72558;51.000;-3.112;2023-11-18T16:12:34;30.4;;;4.6;;
82805;SDS011;72558;51.000;-3.112;2023-11-18T16:15:34;29.5;;;5.2;;
82805;SDS011;72558;51.000;-3.112;2023-11-18T16:18:34;30.1;;;4.3;;
82805;SDS011;72558;51.000;-3.112;2023-11-18T16:21:34;31.2;;;5.1;;
82805;SDS011;72558;51.000;-3.112;2023-11-18T16:24:34;29.6;;;5.1;;
82805;SDS011;72558;51.000;-3.112;2023-11-18T16:27:33;29.1;;;4.8;;
82805;SDS011;72558;51.000;-3.112;2023-11-18T16:30:34;28.1;;;4.2;;
82805;SDS011;72558;51.000;-3.112;2023-11-18T16:33:33;36.0;;;4.9;;
82805;SDS011;72558;51.000;-3.112;2023-11-18T16:36:34;25.3;;;4.6;;
82805;SDS011;72558;51.000;-3.112;2023-11-18T16:39:33;28.2;;;4.3;;
82805;SDS011;72558;51.000;-3.112;2023-11-18T16:42:34;32.0;;;5.0;;
82805;SDS011;72558;51.000;-3.112;2023-11-18T16:45:34;30.2;;;4.6;;
82805;SDS011;72558;51.000;-3.112;2023-11-18T16:48:34;32.5;;;5.5;;
82805;SDS011;72558;51.000;-3.112;2023-11-18T16:51:33;30.7;;;4.8;;
82805;SDS011;72558;51.000;-3.112;2023-11-18T16:54:34;31.6;;;5.3;;
82805;SDS011;72558;51.000;-3.112;2023-11-18T16:57:34;29.6;;;5.4;;
82805;SDS011;72558;51.000;-3.112;2023-11-18T17:00:34;28.3;;;4.8;;
82805;SDS011;72558;51.000;-3.112;2023-11-18T17:03:34;32.0;;;5.1;;
82805;SDS011;72558;51.000;-3.112;2023-11-18T17:06:34;31.7;;;4.9;;
82805;SDS011;72558;51.000;-3.112;2023-11-18T17:09:34;33.5;;;5.5;;
82805;SDS011;72558;51.000;-3.112;2023-11-18T17:12:33;31.4;;;4.7;;
82805;SDS011;72558;51.000;-3.112;2023-11-18T17:15:34;30.0;;;5.5;;
82805;SDS011;72558;51.000;-3.112;2023-11-18T17:18:34;35.4;;;5.8;;
82805;SDS011;72558;51.000;-3.112;2023-11-18T17:21:33;29.9;;;5.1;;
82805;SDS011;72558;51.000;-3.112;2023-11-18T17:24:34;29.7;;;5.9;;
82805;SDS011;72558;51.000;-3.112;2023-11-18T17:27:34;31.1;;;4.8;;
82805;SDS011;72558;51.000;-3.112;2023-11-18T17:30:33;36.3;;;6.1;;
82805;SDS011;72558;51.000;-3.112;2023-11-18T17:33:34;28.3;;;4.6;;
82805;SDS011;72558;51.000;-3.112;2023-11-18T17:36:34;31.8;;;5.3;;
82805;SDS011;72558;51.000;-3.112;2023-11-18T17:39:33;30.8;;;5.4;;
82805;SDS011;72558;51.000;-3.112;2023-11-18T17:42:34;30.5;;;5.0;;
82805;SDS011;72558;51.000;-3.112;2023-11-18T17:45:34;28.2;;;4.7;;
82805;SDS011;72558;51.000;-3.112;2023-11-18T17:48:33;30.6;;;5.3;;
82805;SDS011;72558;51.000;-3.112;2023-11-18T17:51:34;30.4;;;5.0;;
82805;SDS011;72558;51.000;-3.112;2023-11-18T17:54:34;33.5;;;5.2;;
82805;SDS011;72558;51.000;-3.112;2023-11-18T17:57:34;33.4;;;5.7;;
82805;SDS011;72558;51.000;-3.112;2023-11-18T18:00:34;32.1;;;5.3;;
82805;SDS011;72558;51.000;-3.112;2023-11-18T18:03:33;35.5;;;5.8;;
82805;SDS011;72558;51.000;-3.112;2023-11-18T18:06:34;30.0;;;5.3;;
82805;SDS011;72558;51.000;-3.112;2023-11-18T18:09:34;34.9;;;5.6;;
82805;SDS011;72558;51.000;-3.112;2023-11-18T18:12:33;35.0;;;5.9;;